Time;durP1;ratioP1;P1;durP2;ratioP2;P2;SDS_P1;SDS_P2;PMS_P1;PMS_P2;Temp;Humidity;BMP_temperature;BMP_pressure;BME280_temperature;BME280_humidity;BME280_pressure;Samples;Min_cycle;Max_cycle;Signal;HPM_P1;HPM_P2
2021/05/30 00:00:27;;;;;;;4.17;3.87;;;21.80;21.80;;;;;;4972903;28;21098;-76
2021/05/30 00:02:52;;;;;;;4.13;3.93;;;21.70;21.80;;;;;;4973329;28;20433;-76
2021/05/30 00:05:18;;;;;;;4.03;3.83;;;21.70;22.00;;;;;;4972966;28;20504;-75
2021/05/30 00:07:44;;;;;;;4.17;3.97;;;21.70;21.80;;;;;;4973026;28;20229;-75
2021/05/30 00:10:10;;;;;;;3.97;3.77;;;21.70;22.00;;;;;;4973154;28;20528;-74
2021/05/30 00:12:36;;;;;;;4.10;3.90;;;21.70;22.00;;;;;;4973289;28;20281;-75
2021/05/30 00:15:03;;;;;;;4.50;4.30;;;21.70;21.90;;;;;;4972882;28;20294;-76
2021/05/30 00:17:29;;;;;;;4.00;3.70;;;21.70;22.00;;;;;;4973113;28;20430;-75
2021/05/30 00:19:54;;;;;;;3.87;3.67;;;21.70;22.10;;;;;;4973553;28;20847;-76
2021/05/30 00:22:20;;;;;;;3.87;3.67;;;21.70;22.00;;;;;;4973524;28;20218;-75
2021/05/30 00:24:45;;;;;;;4.70;4.40;;;21.70;21.90;;;;;;4973038;28;20214;-75
2021/05/30 00:27:11;;;;;;;4.00;3.80;;;21.60;21.80;;;;;;4973926;28;20638;-74
2021/05/30 00:29:36;;;;;;;3.70;3.50;;;21.70;21.90;;;;;;4974911;28;20257;-75
2021/05/30 00:32:02;;;;;;;4.23;3.93;;;21.70;21.90;;;;;;4974900;28;20664;-75
2021/05/30 00:34:27;;;;;;;4.80;4.50;;;21.70;21.90;;;;;;4976641;28;20178;-75
2021/05/30 00:36:53;;;;;;;4.40;4.10;;;21.70;22.10;;;;;;4975926;28;20429;-76
2021/05/30 00:39:18;;;;;;;4.20;3.90;;;21.60;22.10;;;;;;4976722;28;20181;-75
2021/05/30 00:41:44;;;;;;;3.90;3.67;;;21.60;22.00;;;;;;4976682;28;20681;-75
2021/05/30 00:44:27;;;;;;;3.93;3.73;;;21.60;22.10;;;;;;4976294;28;20233;-76
2021/05/30 00:46:54;;;;;;;4.57;4.33;;;21.60;21.80;;;;;;4976334;28;20230;-75
2021/05/30 00:49:19;;;;;;;3.80;3.60;;;21.70;21.80;;;;;;4976637;28;20430;-76
2021/05/30 00:51:45;;;;;;;3.90;3.70;;;21.70;21.90;;;;;;4976079;28;20460;-76
2021/05/30 00:54:11;;;;;;;4.30;4.10;;;21.70;21.90;;;;;;4976401;28;20171;-76
2021/05/30 00:56:38;;;;;;;3.73;3.53;;;21.70;21.70;;;;;;4976118;28;20646;-76
2021/05/30 00:59:04;;;;;;;4.10;3.90;;;21.70;21.80;;;;;;4975994;28;20431;-76
2021/05/30 01:01:30;;;;;;;4.33;4.03;;;21.70;21.80;;;;;;4976185;28;20433;-76
2021/05/30 01:03:56;;;;;;;3.97;3.77;;;21.70;21.80;;;;;;4976674;28;20752;-76
2021/05/30 01:06:24;;;;;;;4.18;3.97;;;21.70;22.00;;;;;;4975171;28;20492;-76
2021/05/30 01:08:50;;;;;;;4.35;4.05;;;21.70;21.80;;;;;;4975475;28;20418;-76
2021/05/30 01:11:17;;;;;;;3.90;3.70;;;21.70;21.80;;;;;;4975937;28;20695;-75
2021/05/30 01:13:45;;;;;;;3.73;3.53;;;21.60;22.00;;;;;;4975632;28;20524;-76
2021/05/30 01:16:13;;;;;;;3.40;3.20;;;21.70;22.00;;;;;;4975864;28;20418;-76
2021/05/30 01:18:39;;;;;;;4.38;4.07;;;21.70;21.80;;;;;;4974821;28;20414;-76
2021/05/30 01:21:05;;;;;;;3.90;3.70;;;21.60;21.60;;;;;;4974263;28;20232;-75
2021/05/30 01:23:32;;;;;;;4.00;3.73;;;21.70;21.70;;;;;;4975779;28;20402;-74
2021/05/30 01:25:58;;;;;;;3.90;3.70;;;21.70;21.60;;;;;;4975628;28;20333;-75
2021/05/30 01:28:23;;;;;;;4.10;3.90;;;21.70;21.30;;;;;;4975213;28;20501;-75
2021/05/30 01:30:49;;;;;;;4.30;4.00;;;21.60;21.80;;;;;;4975704;28;20244;-76
2021/05/30 01:33:15;;;;;;;3.70;3.50;;;21.60;22.00;;;;;;4975242;28;20406;-75
2021/05/30 01:35:41;;;;;;;4.20;3.90;;;21.60;21.90;;;;;;4975204;28;20589;-76
2021/05/30 01:38:06;;;;;;;3.93;3.70;;;21.70;21.70;;;;;;4975518;28;20406;-76
2021/05/30 01:40:32;;;;;;;3.67;3.47;;;21.60;22.00;;;;;;4975643;28;20179;-76
2021/05/30 01:42:58;;;;;;;3.80;3.60;;;21.60;21.70;;;;;;4975336;28;20221;-74
2021/05/30 01:45:28;;;;;;;3.80;3.60;;;21.60;21.60;;;;;;4974996;28;20209;-76
2021/05/30 01:47:54;;;;;;;3.80;3.60;;;21.60;21.80;;;;;;4974779;28;20464;-76
2021/05/30 01:50:22;;;;;;;3.97;3.77;;;21.60;21.60;;;;;;4975254;28;20199;-75
2021/05/30 01:52:49;;;;;;;4.00;3.80;;;21.60;21.70;;;;;;4975213;28;20273;-75
2021/05/30 01:55:25;;;;;;;3.57;3.37;;;21.60;21.70;;;;;;4974959;28;20414;-76
2021/05/30 01:57:53;;;;;;;3.50;3.37;;;21.60;21.70;;;;;;4974947;28;20422;-75
2021/05/30 02:00:19;;;;;;;3.70;3.50;;;21.60;21.60;;;;;;4975068;28;20480;-75
2021/05/30 02:02:49;;;;;;;3.50;3.27;;;21.60;21.70;;;;;;4975132;28;20480;-76
2021/05/30 02:05:15;;;;;;;3.40;3.20;;;21.60;21.70;;;;;;4974387;28;20560;-75
2021/05/30 02:07:41;;;;;;;3.73;3.53;;;21.60;21.60;;;;;;4975130;28;20501;-75
2021/05/30 02:10:10;;;;;;;3.58;3.38;;;21.60;21.70;;;;;;4974035;28;20410;-75
2021/05/30 02:12:36;;;;;;;3.90;3.60;;;21.60;21.40;;;;;;4973695;28;20497;-75
2021/05/30 02:15:04;;;;;;;4.20;3.90;;;21.70;21.50;;;;;;4974712;28;20229;-75
2021/05/30 02:17:30;;;;;;;3.83;3.63;;;21.60;21.50;;;;;;4975021;28;20429;-76
2021/05/30 02:19:57;;;;;;;3.50;3.20;;;21.70;21.30;;;;;;4974704;28;20414;-75
2021/05/30 02:22:22;;;;;;;3.83;3.63;;;21.60;21.50;;;;;;4974607;28;20198;-75
2021/05/30 02:24:48;;;;;;;3.80;3.60;;;21.70;21.40;;;;;;4974543;28;20462;-76
2021/05/30 02:27:14;;;;;;;3.73;3.53;;;21.60;21.80;;;;;;4974625;28;20178;-75
2021/05/30 02:29:42;;;;;;;3.90;3.60;;;21.60;21.50;;;;;;4974393;28;20175;-74
2021/05/30 02:32:10;;;;;;;4.05;3.85;;;21.50;21.70;;;;;;4972740;28;20503;-75
2021/05/30 02:34:37;;;;;;;3.20;3.10;;;21.60;21.70;;;;;;4974596;28;20837;-75
2021/05/30 02:37:04;;;;;;;3.70;3.50;;;21.60;21.60;;;;;;4974083;28;20410;-76
2021/05/30 02:39:30;;;;;;;3.50;3.40;;;21.60;21.60;;;;;;4974160;28;20406;-75
2021/05/30 02:41:55;;;;;;;3.83;3.63;;;21.60;22.20;;;;;;4974222;28;20433;-76
2021/05/30 02:44:21;;;;;;;3.93;3.73;;;21.60;21.70;;;;;;4974093;28;20182;-76
2021/05/30 02:46:46;;;;;;;4.33;4.03;;;21.60;21.30;;;;;;4974114;28;20671;-76
2021/05/30 02:49:12;;;;;;;3.67;3.47;;;21.60;21.20;;;;;;4974361;28;20093;-75
2021/05/30 02:51:37;;;;;;;4.10;3.80;;;21.60;21.80;;;;;;4973853;28;20550;-76
2021/05/30 02:54:03;;;;;;;3.83;3.63;;;21.70;21.20;;;;;;4973914;28;20668;-76
2021/05/30 02:56:29;;;;;;;3.60;3.40;;;21.60;21.60;;;;;;4973673;28;20175;-76
2021/05/30 02:58:55;;;;;;;3.80;3.60;;;21.60;21.60;;;;;;4973356;28;20414;-75
2021/05/30 03:01:21;;;;;;;3.80;3.60;;;21.60;21.60;;;;;;4973946;28;20782;-75
2021/05/30 03:03:47;;;;;;;3.60;3.40;;;21.60;21.30;;;;;;4974338;28;20653;-75
2021/05/30 03:06:13;;;;;;;3.47;3.27;;;21.60;21.30;;;;;;4973552;28;20198;-75
2021/05/30 03:08:39;;;;;;;3.70;3.50;;;21.60;21.50;;;;;;4972768;28;20433;-76
2021/05/30 03:11:04;;;;;;;3.73;3.53;;;21.60;21.50;;;;;;4972991;28;20405;-75
2021/05/30 03:13:30;;;;;;;3.43;3.23;;;21.60;21.50;;;;;;4973758;28;20556;-76
2021/05/30 03:15:56;;;;;;;4.10;3.80;;;21.60;21.20;;;;;;4972513;28;20504;-76
2021/05/30 03:18:21;;;;;;;3.43;3.23;;;21.60;21.20;;;;;;4973772;28;20214;-75
2021/05/30 03:20:47;;;;;;;3.80;3.60;;;21.60;20.90;;;;;;4973449;28;20185;-75
2021/05/30 03:23:12;;;;;;;4.37;3.53;;;21.60;21.30;;;;;;4973625;28;20198;-76
2021/05/30 03:25:38;;;;;;;3.80;3.60;;;21.60;21.40;;;;;;4973474;28;20269;-75
2021/05/30 03:28:04;;;;;;;3.40;3.20;;;21.60;21.50;;;;;;4973298;28;20543;-75
2021/05/30 03:30:30;;;;;;;3.45;3.30;;;21.60;21.50;;;;;;4973206;28;20406;-76
2021/05/30 03:32:56;;;;;;;3.50;3.30;;;21.60;21.60;;;;;;4973576;28;20198;-75
2021/05/30 03:35:21;;;;;;;3.60;3.40;;;21.50;21.40;;;;;;4973311;28;20254;-75
2021/05/30 03:37:47;;;;;;;3.70;3.50;;;21.50;21.70;;;;;;4973426;28;20178;-76
2021/05/30 03:40:27;;;;;;;3.70;3.50;;;21.50;21.30;;;;;;4974009;28;20280;-77
2021/05/30 03:42:53;;;;;;;3.57;3.37;;;21.50;21.40;;;;;;4973558;28;20984;-76
2021/05/30 03:45:23;;;;;;;3.27;3.17;;;21.60;21.10;;;;;;4973587;28;20448;-74
2021/05/30 03:47:49;;;;;;;4.00;3.80;;;21.60;21.40;;;;;;4974404;28;20895;-75
2021/05/30 03:50:15;;;;;;;3.70;3.50;;;21.50;21.50;;;;;;4975419;28;20503;-75
2021/05/30 03:52:41;;;;;;;3.47;3.27;;;21.50;21.40;;;;;;4974326;28;20453;-75
2021/05/30 03:55:08;;;;;;;3.70;3.40;;;21.50;21.50;;;;;;4973628;28;20675;-76
2021/05/30 03:57:35;;;;;;;3.40;3.20;;;21.50;21.10;;;;;;4973230;28;20237;-76
2021/05/30 04:00:08;;;;;;;3.40;3.20;;;21.60;21.30;;;;;;4973323;28;20411;-76
2021/05/30 04:02:34;;;;;;;3.53;3.30;;;21.50;21.30;;;;;;4973068;28;20460;-75
2021/05/30 04:05:00;;;;;;;3.30;3.10;;;21.50;21.20;;;;;;4972744;28;20824;-76
2021/05/30 04:07:25;;;;;;;3.77;3.47;;;21.50;21.50;;;;;;4973340;28;20630;-76
2021/05/30 04:09:51;;;;;;;3.80;3.50;;;21.50;21.60;;;;;;4977019;28;20449;-76
2021/05/30 04:12:16;;;;;;;3.13;2.93;;;21.60;21.50;;;;;;4977069;28;20249;-75
2021/05/30 04:14:42;;;;;;;3.87;3.67;;;21.70;21.40;;;;;;4977129;28;20586;-76
2021/05/30 04:17:08;;;;;;;3.60;3.30;;;21.80;21.30;;;;;;4977156;28;20717;-76
2021/05/30 04:19:33;;;;;;;3.30;3.20;;;21.80;21.20;;;;;;4976696;28;20760;-76
2021/05/30 04:22:00;;;;;;;3.77;3.57;;;21.90;21.10;;;;;;4976497;28;20406;-75
2021/05/30 04:24:25;;;;;;;3.37;3.17;;;21.90;21.00;;;;;;4973697;28;20471;-75
2021/05/30 04:26:51;;;;;;;3.57;3.37;;;21.90;21.00;;;;;;4972008;28;20414;-75
2021/05/30 04:29:16;;;;;;;3.50;3.30;;;21.90;21.10;;;;;;4976811;28;20175;-75
2021/05/30 04:31:42;;;;;;;4.37;4.07;;;21.80;21.00;;;;;;4976886;28;20423;-76
2021/05/30 04:34:07;;;;;;;3.10;3.00;;;21.80;21.10;;;;;;4974024;28;20221;-75
2021/05/30 04:36:33;;;;;;;3.67;3.47;;;21.80;21.10;;;;;;4967822;28;20278;-76
2021/05/30 04:38:59;;;;;;;3.60;3.40;;;21.80;21.20;;;;;;4975373;28;20468;-76
2021/05/30 04:41:24;;;;;;;4.10;3.80;;;21.80;21.20;;;;;;4976009;28;20349;-76
2021/05/30 04:43:50;;;;;;;3.50;3.30;;;21.90;21.20;;;;;;4976304;28;20181;-76
2021/05/30 04:46:15;;;;;;;6.43;3.60;;;21.90;21.20;;;;;;4969898;28;20221;-77
2021/05/30 04:48:41;;;;;;;3.47;3.30;;;21.80;21.30;;;;;;4976065;28;20369;-77
2021/05/30 04:51:13;;;;;;;4.13;3.70;;;21.80;20.90;;;;;;4976301;28;20263;-76
2021/05/30 04:53:40;;;;;;;3.93;3.73;;;21.70;20.80;;;;;;4976342;28;20577;-76
2021/05/30 04:56:07;;;;;;;4.27;3.83;;;21.70;20.80;;;;;;4974160;28;20492;-76
2021/05/30 04:58:33;;;;;;;4.30;4.00;;;21.60;20.70;;;;;;4976314;28;20418;-76
2021/05/30 05:01:00;;;;;;;3.77;3.57;;;21.60;20.80;;;;;;4975444;28;20469;-77
2021/05/30 05:03:26;;;;;;;3.80;3.60;;;21.60;20.80;;;;;;4976178;28;20433;-77
2021/05/30 05:05:55;;;;;;;4.17;3.97;;;21.50;20.80;;;;;;4976205;28;20550;-77
2021/05/30 05:08:21;;;;;;;4.50;4.10;;;21.60;20.80;;;;;;4977085;28;20508;-77
2021/05/30 05:10:48;;;;;;;4.20;3.90;;;21.60;20.80;;;;;;4976358;28;20972;-77
2021/05/30 05:13:14;;;;;;;4.43;4.03;;;21.60;20.90;;;;;;4971048;28;20446;-77
2021/05/30 05:15:45;;;;;;;5.37;3.70;;;21.60;21.10;;;;;;4976304;28;20458;-77
2021/05/30 05:18:15;;;;;;;3.80;3.50;;;21.60;21.00;;;;;;4977177;28;20426;-77
2021/05/30 05:20:41;;;;;;;4.80;3.60;;;21.70;21.00;;;;;;4976794;28;20422;-77
2021/05/30 05:23:07;;;;;;;4.63;4.18;;;21.70;21.10;;;;;;4958659;28;20422;-77
2021/05/30 05:25:35;;;;;;;3.90;3.70;;;21.70;21.10;;;;;;4975198;28;20301;-77
2021/05/30 05:28:02;;;;;;;5.33;4.40;;;21.70;21.00;;;;;;4976754;28;20469;-77
2021/05/30 05:30:28;;;;;;;4.23;4.00;;;21.60;21.20;;;;;;4974825;28;20425;-78
2021/05/30 05:32:54;;;;;;;3.93;3.50;;;21.50;21.40;;;;;;4948666;28;20457;-76
2021/05/30 05:35:20;;;;;;;7.43;4.50;;;21.50;21.40;;;;;;4976301;28;20426;-78
2021/05/30 05:37:46;;;;;;;4.90;4.27;;;21.40;21.80;;;;;;4975592;28;20493;-78
2021/05/30 05:40:12;;;;;;;4.37;4.07;;;21.30;22.00;;;;;;4976449;28;20318;-77
2021/05/30 05:42:38;;;;;;;4.07;3.33;;;21.20;22.30;;;;;;4976458;28;20694;-76
2021/05/30 05:45:05;;;;;;;10.97;4.70;;;21.10;22.40;;;;;;4976403;28;20489;-77
2021/05/30 05:47:31;;;;;;;4.00;3.70;;;21.00;22.40;;;;;;4976862;28;20175;-77
2021/05/30 05:49:57;;;;;;;4.80;3.33;;;21.00;22.40;;;;;;4977337;28;20426;-77
2021/05/30 05:52:22;;;;;;;4.20;3.90;;;20.90;22.30;;;;;;4976361;28;20691;-76
2021/05/30 05:54:51;;;;;;;6.43;3.70;;;20.90;22.90;;;;;;4975803;28;20414;-76
2021/05/30 05:57:17;;;;;;;3.93;3.63;;;20.90;22.90;;;;;;4976034;28;20190;-76
2021/05/30 05:59:43;;;;;;;6.30;4.20;;;20.80;22.70;;;;;;4975739;28;20422;-76
2021/05/30 06:02:08;;;;;;;4.50;3.97;;;20.80;22.90;;;;;;4975729;28;20578;-76
2021/05/30 06:04:34;;;;;;;6.03;3.97;;;20.80;23.50;;;;;;4976036;28;20179;-76
2021/05/30 06:07:00;;;;;;;4.13;3.73;;;20.70;23.60;;;;;;4975986;28;20175;-77
2021/05/30 06:09:26;;;;;;;7.13;4.80;;;20.70;24.00;;;;;;4976192;28;20291;-76
2021/05/30 06:11:51;;;;;;;8.80;5.00;;;20.60;23.80;;;;;;4975004;28;20194;-76
2021/05/30 06:14:17;;;;;;;5.00;4.60;;;20.50;23.50;;;;;;4974867;28;20177;-76
2021/05/30 06:16:43;;;;;;;4.80;4.37;;;20.40;23.60;;;;;;4974842;28;20689;-76
2021/05/30 06:19:09;;;;;;;4.77;4.27;;;20.30;22.80;;;;;;4974685;28;20226;-76
2021/05/30 06:21:34;;;;;;;4.73;4.33;;;20.20;22.90;;;;;;4974484;28;20202;-76
2021/05/30 06:24:00;;;;;;;5.40;4.57;;;20.10;22.90;;;;;;4971420;28;20454;-75
2021/05/30 06:26:25;;;;;;;4.97;4.67;;;20.00;22.20;;;;;;4967172;28;20210;-75
2021/05/30 06:28:51;;;;;;;4.30;3.90;;;20.00;22.00;;;;;;4974392;28;20645;-75
2021/05/30 06:31:17;;;;;;;4.83;4.53;;;19.90;21.90;;;;;;4973677;28;20179;-75
2021/05/30 06:33:43;;;;;;;4.63;4.33;;;19.90;22.50;;;;;;4974339;28;20518;-75
2021/05/30 06:36:08;;;;;;;4.67;4.33;;;19.90;22.90;;;;;;4974367;28;20693;-75
2021/05/30 06:38:34;;;;;;;4.50;4.20;;;19.90;23.00;;;;;;4974852;28;20186;-75
2021/05/30 06:40:59;;;;;;;4.13;3.83;;;19.90;23.20;;;;;;4974123;28;20674;-75
2021/05/30 06:43:25;;;;;;;4.83;4.43;;;19.90;23.20;;;;;;4974141;28;20209;-75
2021/05/30 06:45:50;;;;;;;4.13;3.83;;;19.90;23.70;;;;;;4974420;28;20681;-75
2021/05/30 06:48:19;;;;;;;4.50;4.20;;;19.90;23.20;;;;;;4974297;28;20171;-76
2021/05/30 06:51:11;;;;;;;5.23;4.73;;;19.90;23.50;;;;;;4973388;28;20170;-76
2021/05/30 06:53:30;;;;;;;5.60;4.70;;;19.90;23.20;;;;;;4974938;28;20418;-76
2021/05/30 06:55:58;;;;;;;5.47;4.13;;;20.00;23.30;;;;;;4974441;28;20422;-77
2021/05/30 06:58:24;;;;;;;4.20;4.00;;;20.00;23.30;;;;;;4974842;28;20167;-77
2021/05/30 07:00:49;;;;;;;5.77;5.23;;;20.00;23.20;;;;;;4974776;28;20760;-76
2021/05/30 07:03:15;;;;;;;4.90;4.60;;;20.00;23.50;;;;;;4974758;28;20201;-77
2021/05/30 07:05:40;;;;;;;4.67;4.27;;;20.00;23.50;;;;;;4975090;28;20318;-76
2021/05/30 07:08:06;;;;;;;4.80;4.50;;;20.00;23.60;;;;;;4975007;28;20650;-75
2021/05/30 07:10:31;;;;;;;5.17;4.80;;;20.00;23.80;;;;;;4975162;28;20179;-76
2021/05/30 07:12:57;;;;;;;7.47;4.80;;;20.00;24.20;;;;;;4975775;28;20195;-76
2021/05/30 07:15:22;;;;;;;5.83;5.20;;;20.00;24.30;;;;;;4961495;28;20710;-75
2021/05/30 07:17:48;;;;;;;4.77;4.50;;;20.00;24.10;;;;;;4954633;29;20696;-77
2021/05/30 07:20:14;;;;;;;5.33;4.83;;;20.00;24.10;;;;;;4956021;29;20635;-77
2021/05/30 07:22:39;;;;;;;8.83;4.97;;;20.00;24.30;;;;;;4956330;29;20195;-75
2021/05/30 07:25:05;;;;;;;5.00;4.27;;;20.00;24.30;;;;;;4954102;29;20471;-75
2021/05/30 07:27:31;;;;;;;5.40;4.90;;;19.90;24.30;;;;;;4954869;29;20218;-76
2021/05/30 07:29:56;;;;;;;5.57;4.80;;;19.90;24.40;;;;;;4955044;29;20861;-76
2021/05/30 07:32:23;;;;;;;4.90;4.40;;;19.90;24.60;;;;;;4952062;28;20218;-76
2021/05/30 07:34:48;;;;;;;7.03;4.70;;;19.90;24.70;;;;;;4953570;29;20179;-76
2021/05/30 07:37:14;;;;;;;5.57;5.03;;;19.90;24.70;;;;;;4953927;29;20482;-76
2021/05/30 07:39:39;;;;;;;5.10;4.70;;;19.90;24.70;;;;;;4953832;29;20203;-76
2021/05/30 07:42:05;;;;;;;4.53;4.03;;;19.90;25.40;;;;;;4954364;28;20528;-77
2021/05/30 07:44:31;;;;;;;5.27;4.77;;;19.90;25.20;;;;;;4954672;29;20175;-77
2021/05/30 07:46:57;;;;;;;4.77;4.47;;;19.90;25.20;;;;;;4953768;29;20458;-77
2021/05/30 07:49:23;;;;;;;5.03;4.63;;;19.90;25.40;;;;;;4953917;29;20182;-76
2021/05/30 07:51:49;;;;;;;5.23;4.80;;;19.90;25.60;;;;;;4954740;29;20502;-76
2021/05/30 07:54:17;;;;;;;6.77;5.30;;;19.90;26.00;;;;;;4953809;29;20180;-76
2021/05/30 07:56:43;;;;;;;7.93;5.77;;;19.90;26.30;;;;;;4952631;29;20187;-76
2021/05/30 07:59:09;;;;;;;9.97;6.00;;;19.90;26.50;;;;;;4954033;29;21020;-76
2021/05/30 08:01:35;;;;;;;6.97;6.23;;;19.90;26.20;;;;;;4953974;29;20193;-76
2021/05/30 08:04:01;;;;;;;14.23;5.70;;;19.90;26.60;;;;;;4954027;29;20505;-76
2021/05/30 08:06:29;;;;;;;9.90;5.43;;;19.90;26.60;;;;;;4953903;29;20198;-76
2021/05/30 08:08:54;;;;;;;8.23;5.77;;;19.90;26.50;;;;;;4953552;29;20205;-76
2021/05/30 08:11:20;;;;;;;10.03;5.43;;;19.90;26.50;;;;;;4953971;29;20418;-76
2021/05/30 08:13:45;;;;;;;7.83;5.40;;;19.90;26.50;;;;;;4954209;29;20227;-76
2021/05/30 08:16:11;;;;;;;8.40;4.97;;;19.90;26.50;;;;;;4936244;29;20175;-76
2021/05/30 08:18:36;;;;;;;9.13;6.00;;;19.90;26.50;;;;;;4954178;29;20594;-76
2021/05/30 08:21:02;;;;;;;5.83;5.30;;;19.90;26.40;;;;;;4953576;29;20298;-78
2021/05/30 08:23:28;;;;;;;7.03;5.33;;;19.90;26.40;;;;;;4952445;29;20272;-75
2021/05/30 08:25:53;;;;;;;6.50;5.00;;;19.90;26.20;;;;;;4952537;29;20211;-76
2021/05/30 08:28:19;;;;;;;5.10;4.60;;;19.90;26.40;;;;;;4951792;29;20551;-77
2021/05/30 08:30:44;;;;;;;5.00;4.60;;;19.90;26.30;;;;;;4955560;29;20183;-75
2021/05/30 08:33:10;;;;;;;6.23;4.53;;;19.80;26.30;;;;;;4955274;29;20203;-76
2021/05/30 08:35:35;;;;;;;7.20;4.93;;;19.80;26.20;;;;;;4953661;29;20588;-76
2021/05/30 08:38:01;;;;;;;8.13;4.67;;;19.80;26.30;;;;;;4953419;29;20179;-76
2021/05/30 08:40:27;;;;;;;6.03;4.90;;;19.80;26.20;;;;;;4953783;28;20172;-78
2021/05/30 08:42:53;;;;;;;6.60;4.67;;;19.80;26.20;;;;;;4954418;29;20203;-76
2021/05/30 08:45:20;;;;;;;5.43;4.87;;;19.80;26.20;;;;;;4953091;29;20278;-75
2021/05/30 08:47:46;;;;;;;5.27;4.37;;;19.80;26.30;;;;;;4953888;29;20222;-76
2021/05/30 08:50:13;;;;;;;5.80;5.30;;;19.80;26.30;;;;;;4953811;29;20419;-76
2021/05/30 08:52:39;;;;;;;5.03;4.60;;;19.80;26.30;;;;;;4953357;29;20667;-76
2021/05/30 08:55:05;;;;;;;5.00;4.60;;;19.80;26.30;;;;;;4956010;28;20419;-76
2021/05/30 08:57:31;;;;;;;7.27;4.90;;;19.80;26.40;;;;;;4957154;29;20422;-76
2021/05/30 08:59:57;;;;;;;7.33;4.37;;;19.80;26.50;;;;;;4956737;29;20415;-76
2021/05/30 09:02:24;;;;;;;4.50;4.10;;;19.80;26.40;;;;;;4956862;29;20207;-75
2021/05/30 09:04:49;;;;;;;5.30;4.80;;;19.80;26.30;;;;;;4958695;28;20439;-76
2021/05/30 09:07:15;;;;;;;6.77;5.07;;;19.80;26.40;;;;;;4973469;28;20445;-76
2021/05/30 09:09:48;;;;;;;4.93;4.53;;;19.80;26.40;;;;;;4951022;28;20215;-75
2021/05/30 09:12:23;;;;;;;6.40;4.40;;;19.80;26.80;;;;;;4976023;28;20434;-75
2021/05/30 09:14:53;;;;;;;4.67;4.20;;;19.80;26.30;;;;;;4975853;28;20418;-76
2021/05/30 09:17:18;;;;;;;4.90;4.40;;;19.80;25.80;;;;;;4967879;28;20426;-76
2021/05/30 09:19:50;;;;;;;4.90;4.30;;;19.80;25.70;;;;;;4976089;28;20465;-76
2021/05/30 09:22:17;;;;;;;4.97;4.00;;;19.80;25.10;;;;;;4975652;28;20680;-76
2021/05/30 09:25:00;;;;;;;6.70;4.03;;;19.80;25.50;;;;;;4975836;28;20437;-76
2021/05/30 09:27:27;;;;;;;4.67;4.27;;;19.70;24.80;;;;;;4975764;28;20422;-76
2021/05/30 09:30:20;;;;;;;3.73;3.47;;;19.80;25.10;;;;;;4975314;28;20518;-76
2021/05/30 09:33:07;;;;;;;4.37;3.77;;;19.80;25.20;;;;;;4942051;28;20457;-76
2021/05/30 09:35:52;;;;;;;4.30;3.63;;;19.80;24.80;;;;;;4937058;29;20934;-75
2021/05/30 09:38:21;;;;;;;5.00;4.53;;;19.80;24.20;;;;;;4936896;29;20420;-76
2021/05/30 09:40:54;;;;;;;5.97;4.47;;;19.80;24.20;;;;;;4937353;29;20463;-76
2021/05/30 09:43:36;;;;;;;4.60;4.20;;;19.80;24.20;;;;;;4937166;29;20912;-76
2021/05/30 09:46:11;;;;;;;3.40;3.10;;;19.70;23.70;;;;;;4937558;29;20447;-76
2021/05/30 09:48:55;;;;;;;4.73;4.33;;;19.70;23.20;;;;;;4936915;29;20423;-77
2021/05/30 09:51:34;;;;;;;4.13;3.93;;;19.70;23.20;;;;;;4937719;29;20408;-76
2021/05/30 09:54:04;;;;;;;4.47;4.07;;;19.70;23.80;;;;;;4938036;29;20411;-77
2021/05/30 09:56:39;;;;;;;4.37;4.07;;;19.70;24.30;;;;;;4937198;29;20499;-77
2021/05/30 09:59:16;;;;;;;3.93;3.73;;;19.70;23.90;;;;;;4936977;29;20412;-76
2021/05/30 10:01:50;;;;;;;4.20;4.00;;;19.60;24.10;;;;;;4937023;29;20444;-76
2021/05/30 10:04:16;;;;;;;4.33;4.03;;;19.60;23.90;;;;;;4937083;29;20418;-77
2021/05/30 10:06:42;;;;;;;4.80;4.50;;;19.60;24.20;;;;;;4936656;29;20491;-77
2021/05/30 10:09:09;;;;;;;4.43;4.13;;;19.60;23.80;;;;;;4937882;29;20798;-77
2021/05/30 10:11:36;;;;;;;5.27;4.97;;;19.60;23.00;;;;;;4937741;29;20196;-76
2021/05/30 10:14:03;;;;;;;4.83;4.43;;;19.60;23.50;;;;;;4936974;29;20408;-76
2021/05/30 10:16:30;;;;;;;4.00;3.80;;;19.60;23.10;;;;;;4936625;29;20416;-76
2021/05/30 10:19:03;;;;;;;4.50;4.20;;;19.60;23.40;;;;;;4936831;29;20760;-76
2021/05/30 10:21:30;;;;;;;5.27;4.90;;;19.60;23.60;;;;;;4958226;28;20881;-75
2021/05/30 10:23:58;;;;;;;5.10;4.80;;;19.60;23.70;;;;;;4974438;28;20433;-76
2021/05/30 10:26:24;;;;;;;4.37;4.07;;;19.60;23.00;;;;;;4974627;28;20458;-76
2021/05/30 10:29:10;;;;;;;5.33;4.00;;;19.60;23.30;;;;;;4963928;28;20413;-76
2021/05/30 10:31:38;;;;;;;4.30;3.90;;;19.60;23.90;;;;;;4965974;28;20852;-75
2021/05/30 10:34:09;;;;;;;4.10;3.80;;;19.60;23.90;;;;;;4955705;29;20411;-76
2021/05/30 10:36:36;;;;;;;4.57;4.37;;;19.60;23.60;;;;;;4955691;29;20837;-75
2021/05/30 10:39:03;;;;;;;4.70;4.40;;;19.70;23.60;;;;;;4957398;29;20499;-75
2021/05/30 10:41:28;;;;;;;4.10;3.90;;;19.70;23.50;;;;;;4956968;29;20462;-75
2021/05/30 10:43:54;;;;;;;4.40;4.10;;;19.70;23.40;;;;;;4959791;29;20443;-76
2021/05/30 10:46:23;;;;;;;3.30;3.10;;;19.70;23.40;;;;;;4961960;29;20203;-75
2021/05/30 10:49:09;;;;;;;5.30;4.90;;;19.70;22.90;;;;;;4958907;29;20450;-76
2021/05/30 10:51:43;;;;;;;147.27;106.27;;;19.70;22.60;;;;;;4960540;29;20435;-75
2021/05/30 10:54:13;;;;;;;195.90;146.80;;;19.70;22.50;;;;;;4961495;29;20411;-75
2021/05/30 10:56:54;;;;;;;278.23;219.33;;;19.70;22.60;;;;;;4960782;29;20957;-75
2021/05/30 10:59:21;;;;;;;267.37;213.80;;;19.70;22.20;;;;;;4942999;29;20485;-76
2021/05/30 11:01:48;;;;;;;271.43;222.10;;;19.70;22.00;;;;;;4954611;29;20863;-76
2021/05/30 11:04:29;;;;;;;238.70;191.20;;;19.80;22.20;;;;;;4954895;29;20415;-76
2021/05/30 11:06:59;;;;;;;197.40;161.80;;;19.80;22.10;;;;;;4954330;29;20466;-76
2021/05/30 11:09:50;;;;;;;181.43;155.63;;;19.80;21.80;;;;;;4954846;29;20411;-76
2021/05/30 11:12:19;;;;;;;150.90;126.90;;;19.80;21.60;;;;;;4955003;28;20430;-76
2021/05/30 11:15:03;;;;;;;118.90;100.80;;;19.80;21.60;;;;;;4954484;29;20441;-76
2021/05/30 11:17:41;;;;;;;95.17;75.47;;;19.80;21.60;;;;;;4955543;28;20399;-77
2021/05/30 11:20:10;;;;;;;71.73;58.57;;;19.80;21.60;;;;;;4954903;29;20811;-76
2021/05/30 11:22:42;;;;;;;58.17;49.07;;;19.80;21.60;;;;;;4936962;29;20502;-77
2021/05/30 11:25:09;;;;;;;48.10;39.93;;;19.80;21.50;;;;;;4936789;29;20470;-76
2021/05/30 11:27:54;;;;;;;43.83;34.50;;;19.80;21.60;;;;;;4954821;29;20411;-76
2021/05/30 11:30:47;;;;;;;32.97;29.43;;;19.80;21.10;;;;;;4968278;28;20422;-76
2021/05/30 11:33:26;;;;;;;34.57;25.63;;;19.80;20.70;;;;;;4973516;28;20430;-76
2021/05/30 11:35:53;;;;;;;23.97;20.67;;;19.80;20.70;;;;;;4973026;28;20417;-75
2021/05/30 11:38:19;;;;;;;21.20;17.83;;;19.80;20.50;;;;;;4967965;28;20447;-74
2021/05/30 11:40:45;;;;;;;20.23;17.90;;;19.80;20.30;;;;;;4937122;29;20423;-77
2021/05/30 11:43:16;;;;;;;23.63;15.53;;;19.80;20.20;;;;;;4953705;29;20441;-76
2021/05/30 11:45:47;;;;;;;20.00;15.63;;;19.80;20.30;;;;;;4953922;29;20459;-74
2021/05/30 11:48:15;;;;;;;15.87;12.70;;;19.80;20.50;;;;;;4954309;29;20441;-75
2021/05/30 11:50:53;;;;;;;13.30;11.97;;;19.80;20.50;;;;;;4952380;29;20419;-74
2021/05/30 11:53:30;;;;;;;10.87;9.87;;;19.80;20.60;;;;;;4963052;28;20880;-74
2021/05/30 11:55:57;;;;;;;11.07;9.97;;;19.80;20.60;;;;;;4949969;28;20576;-74
2021/05/30 11:58:23;;;;;;;13.07;9.40;;;19.80;20.70;;;;;;4973072;28;20409;-74
2021/05/30 12:01:00;;;;;;;9.50;8.50;;;19.80;20.80;;;;;;4973547;28;20425;-75
2021/05/30 12:03:26;;;;;;;7.67;6.97;;;19.80;20.70;;;;;;4973166;28;20947;-74
2021/05/30 12:05:59;;;;;;;8.00;7.20;;;19.80;20.60;;;;;;4972669;28;20662;-74
2021/05/30 12:08:25;;;;;;;8.00;7.03;;;19.70;20.30;;;;;;4972957;28;20410;-74
2021/05/30 12:10:59;;;;;;;6.57;5.97;;;19.70;20.20;;;;;;4973151;28;20457;-74
2021/05/30 12:13:27;;;;;;;6.20;5.60;;;19.70;20.00;;;;;;4972999;28;20460;-74
2021/05/30 12:15:59;;;;;;;6.70;6.20;;;19.70;20.70;;;;;;4972786;28;20532;-75
2021/05/30 12:18:27;;;;;;;5.97;5.47;;;19.70;20.30;;;;;;4972999;28;20410;-75
2021/05/30 12:20:59;;;;;;;5.87;5.37;;;19.70;20.70;;;;;;4972636;28;20414;-75
2021/05/30 12:23:25;;;;;;;5.53;5.13;;;19.70;21.00;;;;;;4973023;28;20430;-74
2021/05/30 12:25:53;;;;;;;5.20;4.80;;;19.70;21.00;;;;;;4972538;28;20976;-75
2021/05/30 12:28:33;;;;;;;7.07;6.47;;;19.70;20.50;;;;;;4960413;28;20254;-76
2021/05/30 12:31:05;;;;;;;17.00;9.80;;;19.70;20.30;;;;;;4959703;28;20434;-74
2021/05/30 12:33:51;;;;;;;17.17;9.83;;;19.70;20.50;;;;;;4960812;28;20510;-74
2021/05/30 12:36:36;;;;;;;11.73;9.97;;;19.60;20.20;;;;;;4974944;28;20773;-75
2021/05/30 12:39:23;;;;;;;14.53;9.23;;;19.60;20.70;;;;;;4974308;28;20936;-74
2021/05/30 12:41:57;;;;;;;12.50;8.00;;;19.60;20.90;;;;;;4966400;28;20452;-76
2021/05/30 12:44:30;;;;;;;9.40;8.47;;;19.60;20.60;;;;;;4937188;29;20412;-76
2021/05/30 12:46:58;;;;;;;13.50;8.00;;;19.60;20.70;;;;;;4937301;29;20464;-76